Time,TemperatureF,DewpointF,PressureIn,WindDirection,WindDirectionDegrees,WindSpeedMPH,WindSpeedGustMPH,Humidity,HourlyPrecipIn,Conditions,Clouds,dailyrainin,SoftwareType,DateUTC
2013-04-28 00:42:00,58.0,21.0,-100.00,NNE,20,1.0,4.0,24,-99.99,,,-99.99,,2013-04-28 07:42:00,
2013-04-28 00:52:00,58.0,21.0,-100.00,NNE,20,1.0,4.0,24,-99.99,,,-99.99,,2013-04-28 07:52:00,
2013-04-28 01:01:00,56.0,21.0,-100.00,NW,308,1.0,3.0,25,-99.99,,,-99.99,,2013-04-28 08:01:00,
2013-04-28 01:21:00,56.0,21.0,-100.00,NE,42,1.0,3.0,25,-99.99,,,-99.99,,2013-04-28 08:21:00,
2013-04-28 01:32:00,56.0,21.0,-100.00,NE,42,1.0,3.0,25,-99.99,,,-99.99,,2013-04-28 08:32:00,
2013-04-28 02:01:00,56.0,22.0,-100.00,WSW,250,0.0,2.0,27,-99.99,,,-99.99,,2013-04-28 09:01:00,
2013-04-28 02:21:00,54.0,24.0,-100.00,North,349,3.0,6.0,30,-99.99,,,-99.99,,2013-04-28 09:21:00,
2013-04-28 02:33:00,54.0,24.0,-100.00,North,349,3.0,6.0,30,-99.99,,,-99.99,,2013-04-28 09:33:00,
2013-04-28 03:12:00,57.0,21.0,-100.00,WSW,253,2.0,5.0,25,-99.99,,,-99.99,,2013-04-28 10:12:00,
2013-04-28 03:22:00,57.0,21.0,-100.00,WSW,253,2.0,5.0,25,-99.99,,,-99.99,,2013-04-28 10:22:00,
2013-04-28 04:32:00,50.0,21.0,-100.00,ESE,116,1.0,2.0,32,-99.99,,,-99.99,,2013-04-28 11:32:00,
2013-04-28 04:42:00,50.0,21.0,-100.00,ESE,116,1.0,2.0,32,-99.99,,,-99.99,,2013-04-28 11:42:00,
2013-04-28 04:52:00,52.0,21.0,-100.00,West,267,2.0,6.0,30,-99.99,,,-99.99,,2013-04-28 11:52:00,
2013-04-28 05:01:00,52.0,21.0,-100.00,West,267,2.0,6.0,30,-99.99,,,-99.99,,2013-04-28 12:01:00,
2013-04-28 06:31:00,51.0,22.0,-100.00,NNE,18,1.0,2.0,31,-99.99,,,-99.99,,2013-04-28 13:31:00,
2013-04-28 07:52:00,54.0,24.0,-100.00,SSW,195,0.0,2.0,31,-99.99,,,-99.99,,2013-04-28 14:52:00,
2013-04-28 08:01:00,54.0,24.0,-100.00,SSW,195,0.0,2.0,31,-99.99,,,-99.99,,2013-04-28 15:01:00,
2013-04-28 08:12:00,53.0,28.0,-100.00,SSE,150,0.0,2.0,38,-99.99,,,-99.99,,2013-04-28 15:12:00,
2013-04-28 08:21:00,53.0,28.0,-100.00,SSE,150,0.0,2.0,38,-99.99,,,-99.99,,2013-04-28 15:21:00,
2013-04-28 08:32:00,52.0,26.0,-100.00,SSW,193,2.0,4.0,37,-99.99,,,-99.99,,2013-04-28 15:32:00,
2013-04-28 08:53:00,53.0,26.0,-100.00,South,188,2.0,4.0,35,-99.99,,,-99.99,,2013-04-28 15:53:00,
2013-04-28 09:03:00,53.0,26.0,-100.00,South,188,2.0,4.0,35,-99.99,,,-99.99,,2013-04-28 16:03:00,
2013-04-28 10:21:00,62.0,28.0,-100.00,ESE,109,3.0,6.0,27,-99.99,,,-99.99,,2013-04-28 17:21:00,
2013-04-28 10:32:00,62.0,28.0,-100.00,ESE,109,3.0,6.0,27,-99.99,,,-99.99,,2013-04-28 17:32:00,
2013-04-28 11:02:00,65.0,27.0,-100.00,East,85,4.0,9.0,23,-99.99,,,-99.99,,2013-04-28 18:02:00,
2013-04-28 12:02:00,66.0,26.0,-100.00,ENE,68,5.0,11.0,22,-99.99,,,-99.99,,2013-04-28 19:02:00,
2013-04-28 12:11:00,66.0,26.0,-100.00,ENE,68,5.0,11.0,22,-99.99,,,-99.99,,2013-04-28 19:11:00,
2013-04-28 12:21:00,66.0,26.0,-100.00,ENE,68,5.0,11.0,22,-99.99,,,-99.99,,2013-04-28 19:21:00,
2013-04-28 13:01:00,70.0,11.0,-100.00,SW,223,9.0,23.0,10,-99.99,,,-99.99,,2013-04-28 20:01:00,
2013-04-28 14:01:00,69.0,16.0,-100.00,WSW,248,6.0,17.0,13,-99.99,,,-99.99,,2013-04-28 21:01:00,
2013-04-28 14:11:00,69.0,16.0,-100.00,WSW,248,6.0,17.0,13,-99.99,,,-99.99,,2013-04-28 21:11:00,
2013-04-28 14:22:00,70.0,15.0,-100.00,SW,217,7.0,18.0,12,-99.99,,,-99.99,,2013-04-28 21:22:00,
2013-04-28 14:32:00,70.0,15.0,-100.00,SW,217,7.0,18.0,12,-99.99,,,-99.99,,2013-04-28 21:32:00,
2013-04-28 15:22:00,71.0,18.0,-100.00,SW,230,9.0,17.0,13,-99.99,,,-99.99,,2013-04-28 22:22:00,
2013-04-28 15:33:00,71.0,18.0,-100.00,SW,230,9.0,17.0,13,-99.99,,,-99.99,,2013-04-28 22:33:00,
2013-04-28 16:22:00,71.0,20.0,-100.00,SW,227,11.0,20.0,14,-99.99,,,-99.99,,2013-04-28 23:22:00,
2013-04-28 16:32:00,71.0,20.0,-100.00,SW,227,11.0,20.0,14,-99.99,,,-99.99,,2013-04-28 23:32:00,
2013-04-28 16:42:00,71.0,20.0,-100.00,SW,227,11.0,20.0,14,-99.99,,,-99.99,,2013-04-28 23:42:00,
2013-04-28 18:12:00,71.0,21.0,-100.00,WSW,243,9.0,19.0,15,-99.99,,,-99.99,,2013-04-29 01:12:00,
2013-04-28 18:21:00,71.0,21.0,-100.00,WSW,243,9.0,19.0,15,-99.99,,,-99.99,,2013-04-29 01:21:00,
2013-04-28 18:32:00,70.0,25.0,-100.00,WSW,243,11.0,19.0,18,-99.99,,,-99.99,,2013-04-29 01:32:00,
2013-04-28 18:42:00,70.0,25.0,-100.00,WSW,243,11.0,19.0,18,-99.99,,,-99.99,,2013-04-29 01:42:00,
2013-04-28 18:52:00,69.0,27.0,-100.00,SW,233,10.0,19.0,20,-99.99,,,-99.99,,2013-04-29 01:52:00,
2013-04-28 19:01:00,69.0,27.0,-100.00,SW,233,10.0,19.0,20,-99.99,,,-99.99,,2013-04-29 02:01:00,
2013-04-28 19:11:00,68.0,29.0,-100.00,WSW,243,12.0,19.0,23,-99.99,,,-99.99,,2013-04-29 02:11:00,
2013-04-28 19:21:00,68.0,29.0,-100.00,WSW,243,12.0,19.0,23,-99.99,,,-99.99,,2013-04-29 02:21:00,
2013-04-28 19:32:00,67.0,30.0,-100.00,WSW,248,11.0,21.0,25,-99.99,,,-99.99,,2013-04-29 02:32:00,
2013-04-28 19:41:00,67.0,30.0,-100.00,WSW,248,11.0,21.0,25,-99.99,,,-99.99,,2013-04-29 02:41:00,
2013-04-28 19:52:00,66.0,31.0,-100.00,WSW,254,10.0,19.0,27,-99.99,,,-99.99,,2013-04-29 02:52:00,
2013-04-28 20:01:00,66.0,31.0,-100.00,WSW,254,10.0,19.0,27,-99.99,,,-99.99,,2013-04-29 03:01:00,
2013-04-28 20:33:00,65.0,35.0,-100.00,West,261,9.0,16.0,33,-99.99,,,-99.99,,2013-04-29 03:33:00,
2013-04-28 20:42:00,65.0,35.0,-100.00,West,261,9.0,16.0,33,-99.99,,,-99.99,,2013-04-29 03:42:00,
2013-04-28 21:33:00,62.0,38.0,-100.00,WSW,247,11.0,17.0,41,-99.99,,,-99.99,,2013-04-29 04:33:00,
2013-04-28 21:43:00,62.0,38.0,-100.00,WSW,247,11.0,17.0,41,-99.99,,,-99.99,,2013-04-29 04:43:00,
2013-04-28 22:12:00,62.0,37.0,-100.00,WSW,251,9.0,17.0,39,-99.99,,,-99.99,,2013-04-29 05:12:00,
2013-04-28 22:22:00,61.0,38.0,-100.00,WSW,247,7.0,13.0,42,-99.99,,,-99.99,,2013-04-29 05:22:00,
2013-04-28 22:32:00,61.0,38.0,-100.00,WSW,247,7.0,13.0,42,-99.99,,,-99.99,,2013-04-29 05:32:00,
2013-04-28 22:42:00,61.0,38.0,-100.00,WSW,247,7.0,13.0,42,-99.99,,,-99.99,,2013-04-29 05:42:00,